sensor_id;sensor_type;location;lat;lon;timestamp;pressure;altitude;pressure_sealevel;temperature;humidity
43298;BME280;28892;55.640;37.532;2023-07-02T00:01:59;97109.47;;;18.21;69.71
43298;BME280;28892;55.640;37.532;2023-07-02T00:04:25;97106.69;;;18.31;69.08
43298;BME280;28892;55.640;37.532;2023-07-02T00:06:57;97101.25;;;18.36;68.73
43298;BME280;28892;55.640;37.532;2023-07-02T00:09:23;97108.03;;;18.28;68.93
43298;BME280;28892;55.640;37.532;2023-07-02T00:11:48;97102.97;;;18.27;68.95
43298;BME280;28892;55.640;37.532;2023-07-02T00:14:23;97107.19;;;18.33;69.22
43298;BME280;28892;55.640;37.532;2023-07-02T00:16:49;97115.19;;;18.14;70.16
43298;BME280;28892;55.640;37.532;2023-07-02T00:19:15;97114.09;;;18.15;69.93
43298;BME280;28892;55.640;37.532;2023-07-02T00:21:42;97111.97;;;18.12;70.28
43298;BME280;28892;55.640;37.532;2023-07-02T00:24:09;97107.16;;;18.09;70.28
43298;BME280;28892;55.640;37.532;2023-07-02T00:26:38;97105.69;;;17.92;70.46
43298;BME280;28892;55.640;37.532;2023-07-02T00:29:04;97106.44;;;17.98;70.47
43298;BME280;28892;55.640;37.532;2023-07-02T00:31:32;97125.47;;;18.01;70.69
43298;BME280;28892;55.640;37.532;2023-07-02T00:33:59;97115.78;;;18.06;70.36
43298;BME280;28892;55.640;37.532;2023-07-02T00:36:28;97109.34;;;18.07;69.97
43298;BME280;28892;55.640;37.532;2023-07-02T00:38:55;97114.19;;;18.05;70.48
43298;BME280;28892;55.640;37.532;2023-07-02T00:41:22;97120.63;;;17.98;70.58
43298;BME280;28892;55.640;37.532;2023-07-02T00:43:48;97109.16;;;17.93;71.03
43298;BME280;28892;55.640;37.532;2023-07-02T00:46:15;97129.56;;;17.94;70.88
43298;BME280;28892;55.640;37.532;2023-07-02T00:48:44;97132.44;;;17.97;70.78
43298;BME280;28892;55.640;37.532;2023-07-02T00:51:15;97131.44;;;17.93;71.40
43298;BME280;28892;55.640;37.532;2023-07-02T00:53:42;97117.25;;;17.87;70.82
43298;BME280;28892;55.640;37.532;2023-07-02T00:56:09;97141.91;;;17.90;71.27
43298;BME280;28892;55.640;37.532;2023-07-02T00:58:38;97135.72;;;17.94;71.16
43298;BME280;28892;55.640;37.532;2023-07-02T01:01:05;97135.75;;;17.89;70.93
43298;BME280;28892;55.640;37.532;2023-07-02T01:03:33;97138.28;;;17.75;71.55
43298;BME280;28892;55.640;37.532;2023-07-02T01:06:03;97135.09;;;17.73;71.71
43298;BME280;28892;55.640;37.532;2023-07-02T01:08:29;97127.81;;;17.79;71.35
43298;BME280;28892;55.640;37.532;2023-07-02T01:10:56;97134.19;;;17.83;71.19
43298;BME280;28892;55.640;37.532;2023-07-02T01:13:24;97128.06;;;17.77;71.36
43298;BME280;28892;55.640;37.532;2023-07-02T01:15:50;97141.22;;;17.73;71.98
43298;BME280;28892;55.640;37.532;2023-07-02T01:18:16;97138.97;;;17.86;71.25
43298;BME280;28892;55.640;37.532;2023-07-02T01:20:43;97139.50;;;17.88;70.87
43298;BME280;28892;55.640;37.532;2023-07-02T01:23:09;97142.19;;;17.88;71.32
43298;BME280;28892;55.640;37.532;2023-07-02T01:25:35;97128.63;;;17.74;71.36
43298;BME280;28892;55.640;37.532;2023-07-02T01:28:03;97134.28;;;17.72;71.36
43298;BME280;28892;55.640;37.532;2023-07-02T01:30:29;97137.59;;;17.59;71.65
43298;BME280;28892;55.640;37.532;2023-07-02T01:32:55;97141.09;;;17.54;72.05
43298;BME280;28892;55.640;37.532;2023-07-02T01:35:23;97141.88;;;17.60;71.87
43298;BME280;28892;55.640;37.532;2023-07-02T01:37:52;97141.81;;;17.65;71.89
43298;BME280;28892;55.640;37.532;2023-07-02T01:40:18;97142.78;;;17.45;72.52
43298;BME280;28892;55.640;37.532;2023-07-02T01:42:49;97147.88;;;17.41;72.84
43298;BME280;28892;55.640;37.532;2023-07-02T01:45:20;97145.06;;;17.62;72.46
43298;BME280;28892;55.640;37.532;2023-07-02T01:47:49;97152.06;;;17.58;72.04
43298;BME280;28892;55.640;37.532;2023-07-02T01:50:18;97137.69;;;17.43;72.55
43298;BME280;28892;55.640;37.532;2023-07-02T01:52:49;97146.53;;;17.39;72.78
43298;BME280;28892;55.640;37.532;2023-07-02T01:55:18;97149.00;;;17.35;72.70
43298;BME280;28892;55.640;37.532;2023-07-02T01:57:45;97142.94;;;17.59;71.97
43298;BME280;28892;55.640;37.532;2023-07-02T02:00:11;97152.69;;;17.44;73.04
43298;BME280;28892;55.640;37.532;2023-07-02T02:02:43;97149.22;;;17.39;73.13
43298;BME280;28892;55.640;37.532;2023-07-02T02:05:09;97155.91;;;17.47;72.83
43298;BME280;28892;55.640;37.532;2023-07-02T02:07:38;97154.59;;;17.39;73.71
43298;BME280;28892;55.640;37.532;2023-07-02T02:10:06;97156.38;;;17.54;72.45
43298;BME280;28892;55.640;37.532;2023-07-02T02:12:32;97160.63;;;17.60;72.63
43298;BME280;28892;55.640;37.532;2023-07-02T02:14:58;97153.19;;;17.52;72.96
43298;BME280;28892;55.640;37.532;2023-07-02T02:17:24;97157.44;;;17.58;72.58
43298;BME280;28892;55.640;37.532;2023-07-02T02:19:50;97153.50;;;17.45;73.37
43298;BME280;28892;55.640;37.532;2023-07-02T02:22:17;97164.16;;;17.55;73.36
43298;BME280;28892;55.640;37.532;2023-07-02T02:24:43;97139.97;;;17.60;72.53
43298;BME280;28892;55.640;37.532;2023-07-02T02:27:11;97142.28;;;17.78;72.14
43298;BME280;28892;55.640;37.532;2023-07-02T02:29:37;97157.91;;;17.65;72.88
43298;BME280;28892;55.640;37.532;2023-07-02T02:32:03;97152.31;;;17.62;73.10
43298;BME280;28892;55.640;37.532;2023-07-02T02:34:29;97147.91;;;17.76;72.20
43298;BME280;28892;55.640;37.532;2023-07-02T02:36:55;97150.59;;;17.76;72.47
43298;BME280;28892;55.640;37.532;2023-07-02T02:39:22;97154.63;;;17.73;72.66
43298;BME280;28892;55.640;37.532;2023-07-02T02:41:48;97156.81;;;17.71;72.75
43298;BME280;28892;55.640;37.532;2023-07-02T02:44:18;97162.09;;;17.77;72.38
43298;BME280;28892;55.640;37.532;2023-07-02T02:46:44;97159.81;;;17.65;73.27
43298;BME280;28892;55.640;37.532;2023-07-02T02:49:13;97165.78;;;17.86;72.03
43298;BME280;28892;55.640;37.532;2023-07-02T02:51:40;97155.63;;;17.83;72.35
43298;BME280;28892;55.640;37.532;2023-07-02T02:54:08;97162.03;;;17.87;72.72
43298;BME280;28892;55.640;37.532;2023-07-02T02:56:34;97164.19;;;17.85;72.87
43298;BME280;28892;55.640;37.532;2023-07-02T02:59:00;97171.91;;;17.97;72.03
43298;BME280;28892;55.640;37.532;2023-07-02T03:01:26;97163.03;;;17.96;72.03
43298;BME280;28892;55.640;37.532;2023-07-02T03:03:59;97166.63;;;17.86;72.37
43298;BME280;28892;55.640;37.532;2023-07-02T03:06:25;97163.44;;;17.79;73.19
43298;BME280;28892;55.640;37.532;2023-07-02T03:08:54;97174.94;;;17.85;73.03
43298;BME280;28892;55.640;37.532;2023-07-02T03:11:22;97179.13;;;17.96;72.47
43298;BME280;28892;55.640;37.532;2023-07-02T03:13:53;97170.81;;;17.98;72.10
43298;BME280;28892;55.640;37.532;2023-07-02T03:16:22;97166.16;;;18.14;71.72
43298;BME280;28892;55.640;37.532;2023-07-02T03:18:48;97174.53;;;18.02;72.11
43298;BME280;28892;55.640;37.532;2023-07-02T03:21:14;97186.03;;;18.08;71.47
43298;BME280;28892;55.640;37.532;2023-07-02T03:23:40;97185.00;;;17.98;72.15
43298;BME280;28892;55.640;37.532;2023-07-02T03:26:10;97173.50;;;17.98;71.69
43298;BME280;28892;55.640;37.532;2023-07-02T03:28:35;97195.19;;;18.01;72.11
43298;BME280;28892;55.640;37.532;2023-07-02T03:31:04;97187.50;;;17.90;72.25
43298;BME280;28892;55.640;37.532;2023-07-02T03:33:32;97180.22;;;17.95;72.05
43298;BME280;28892;55.640;37.532;2023-07-02T03:35:58;97180.69;;;18.08;71.16
43298;BME280;28892;55.640;37.532;2023-07-02T03:38:26;97178.03;;;18.02;71.46
43298;BME280;28892;55.640;37.532;2023-07-02T03:40:52;97179.50;;;18.19;71.17
43298;BME280;28892;55.640;37.532;2023-07-02T03:43:20;97202.03;;;18.23;70.77
43298;BME280;28892;55.640;37.532;2023-07-02T03:45:46;97206.56;;;18.23;70.38
43298;BME280;28892;55.640;37.532;2023-07-02T03:48:14;97189.53;;;18.08;70.42
43298;BME280;28892;55.640;37.532;2023-07-02T03:50:40;97209.72;;;17.95;71.22
43298;BME280;28892;55.640;37.532;2023-07-02T03:53:08;97205.94;;;18.01;70.72
43298;BME280;28892;55.640;37.532;2023-07-02T03:55:36;97204.28;;;18.11;70.15
43298;BME280;28892;55.640;37.532;2023-07-02T03:58:04;97194.94;;;18.03;70.05
43298;BME280;28892;55.640;37.532;2023-07-02T04:00:30;97201.59;;;18.11;70.13
43298;BME280;28892;55.640;37.532;2023-07-02T04:02:56;97213.41;;;18.10;70.40
43298;BME280;28892;55.640;37.532;2023-07-02T04:05:22;97203.19;;;18.12;70.32
43298;BME280;28892;55.640;37.532;2023-07-02T04:07:48;97213.00;;;18.27;69.92
43298;BME280;28892;55.640;37.532;2023-07-02T04:10:16;97201.88;;;18.39;69.04
43298;BME280;28892;55.640;37.532;2023-07-02T04:12:45;97204.88;;;18.32;69.03
43298;BME280;28892;55.640;37.532;2023-07-02T04:15:10;97225.78;;;18.35;69.77
43298;BME280;28892;55.640;37.532;2023-07-02T04:17:36;97214.59;;;18.28;69.98
43298;BME280;28892;55.640;37.532;2023-07-02T04:20:02;97214.97;;;18.46;68.98
43298;BME280;28892;55.640;37.532;2023-07-02T04:22:42;97220.75;;;18.58;69.38
43298;BME280;28892;55.640;37.532;2023-07-02T04:25:08;97208.53;;;18.71;68.15
43298;BME280;28892;55.640;37.532;2023-07-02T04:27:37;97224.91;;;18.99;68.21
43298;BME280;28892;55.640;37.532;2023-07-02T04:30:03;97232.75;;;19.20;67.85
43298;BME280;28892;55.640;37.532;2023-07-02T04:32:32;97222.75;;;19.25;67.42
43298;BME280;28892;55.640;37.532;2023-07-02T04:34:58;97230.88;;;19.39;66.17
43298;BME280;28892;55.640;37.532;2023-07-02T04:37:23;97221.81;;;19.35;65.98
43298;BME280;28892;55.640;37.532;2023-07-02T04:39:49;97232.84;;;19.34;66.22
43298;BME280;28892;55.640;37.532;2023-07-02T04:42:18;97235.63;;;19.48;65.66
43298;BME280;28892;55.640;37.532;2023-07-02T04:44:44;97222.03;;;19.39;65.47
43298;BME280;28892;55.640;37.532;2023-07-02T04:47:10;97246.44;;;19.43;65.32
43298;BME280;28892;55.640;37.532;2023-07-02T04:49:36;97236.91;;;19.31;65.26
43298;BME280;28892;55.640;37.532;2023-07-02T04:52:05;97234.84;;;19.23;65.93
43298;BME280;28892;55.640;37.532;2023-07-02T04:54:31;97228.78;;;19.36;65.26
43298;BME280;28892;55.640;37.532;2023-07-02T04:57:20;97246.13;;;19.44;65.26
43298;BME280;28892;55.640;37.532;2023-07-02T04:59:46;97244.41;;;19.53;65.34
43298;BME280;28892;55.640;37.532;2023-07-02T05:02:14;97238.25;;;19.72;65.58
43298;BME280;28892;55.640;37.532;2023-07-02T05:04:40;97246.91;;;19.88;64.86
43298;BME280;28892;55.640;37.532;2023-07-02T05:07:06;97236.38;;;19.73;65.01
43298;BME280;28892;55.640;37.532;2023-07-02T05:09:35;97239.06;;;19.73;65.10
43298;BME280;28892;55.640;37.532;2023-07-02T05:12:08;97245.16;;;19.78;64.33
43298;BME280;28892;55.640;37.532;2023-07-02T05:14:42;97240.56;;;19.79;63.99
43298;BME280;28892;55.640;37.532;2023-07-02T05:17:13;97239.13;;;19.67;64.94
43298;BME280;28892;55.640;37.532;2023-07-02T05:19:46;97231.75;;;19.92;64.70
43298;BME280;28892;55.640;37.532;2023-07-02T05:22:12;97236.81;;;20.18;63.58
43298;BME280;28892;55.640;37.532;2023-07-02T05:24:46;97230.31;;;20.52;62.85
43298;BME280;28892;55.640;37.532;2023-07-02T05:27:12;97239.00;;;20.77;62.23
43298;BME280;28892;55.640;37.532;2023-07-02T05:29:47;97228.19;;;20.83;62.03
43298;BME280;28892;55.640;37.532;2023-07-02T05:32:12;97238.38;;;21.00;61.79
43298;BME280;28892;55.640;37.532;2023-07-02T05:34:41;97235.84;;;21.31;60.95
43298;BME280;28892;55.640;37.532;2023-07-02T05:37:07;97244.84;;;20.85;61.79
43298;BME280;28892;55.640;37.532;2023-07-02T05:39:43;97237.28;;;21.15;61.90
43298;BME280;28892;55.640;37.532;2023-07-02T05:42:09;97230.09;;;21.24;59.68
43298;BME280;28892;55.640;37.532;2023-07-02T05:44:35;97233.34;;;20.79;61.22
43298;BME280;28892;55.640;37.532;2023-07-02T05:47:04;97236.88;;;21.07;60.04
43298;BME280;28892;55.640;37.532;2023-07-02T05:49:30;97247.16;;;21.05;60.27
43298;BME280;28892;55.640;37.532;2023-07-02T05:51:55;97234.84;;;20.85;60.66
43298;BME280;28892;55.640;37.532;2023-07-02T05:54:21;97242.19;;;20.79;61.04
43298;BME280;28892;55.640;37.532;2023-07-02T05:56:50;97243.53;;;21.38;60.10
43298;BME280;28892;55.640;37.532;2023-07-02T05:59:27;97240.53;;;21.40;59.42
43298;BME280;28892;55.640;37.532;2023-07-02T06:02:05;97245.31;;;21.43;58.83
43298;BME280;28892;55.640;37.532;2023-07-02T06:04:35;97254.56;;;21.64;58.86
43298;BME280;28892;55.640;37.532;2023-07-02T06:07:21;97236.25;;;21.39;58.76
43298;BME280;28892;55.640;37.532;2023-07-02T06:09:49;97244.16;;;21.21;59.18
43298;BME280;28892;55.640;37.532;2023-07-02T06:12:33;97245.34;;;21.29;58.86
43298;BME280;28892;55.640;37.532;2023-07-02T06:15:11;97246.75;;;21.26;59.74
43298;BME280;28892;55.640;37.532;2023-07-02T06:17:39;97240.53;;;21.40;58.20
43298;BME280;28892;55.640;37.532;2023-07-02T06:20:07;97252.63;;;21.28;59.12
43298;BME280;28892;55.640;37.532;2023-07-02T06:22:34;97238.56;;;21.17;59.15
43298;BME280;28892;55.640;37.532;2023-07-02T06:24:59;97250.22;;;21.27;59.21
43298;BME280;28892;55.640;37.532;2023-07-02T06:27:29;97257.91;;;21.47;58.02
43298;BME280;28892;55.640;37.532;2023-07-02T06:29:58;97257.53;;;21.91;57.91
43298;BME280;28892;55.640;37.532;2023-07-02T06:32:24;97256.38;;;22.29;55.37
43298;BME280;28892;55.640;37.532;2023-07-02T06:34:50;97257.66;;;21.86;56.00
43298;BME280;28892;55.640;37.532;2023-07-02T06:37:19;97257.06;;;21.75;56.60
43298;BME280;28892;55.640;37.532;2023-07-02T06:39:45;97250.44;;;22.18;55.34
43298;BME280;28892;55.640;37.532;2023-07-02T06:42:10;97260.00;;;22.01;55.63
43298;BME280;28892;55.640;37.532;2023-07-02T06:44:38;97252.69;;;21.79;56.14
43298;BME280;28892;55.640;37.532;2023-07-02T06:49:35;97257.00;;;22.03;55.10
43298;BME280;28892;55.640;37.532;2023-07-02T06:52:02;97273.22;;;22.26;53.90
43298;BME280;28892;55.640;37.532;2023-07-02T06:54:28;97265.22;;;22.21;54.51
43298;BME280;28892;55.640;37.532;2023-07-02T06:56:53;97262.41;;;22.26;54.96
43298;BME280;28892;55.640;37.532;2023-07-02T06:59:23;97270.22;;;22.50;54.67
43298;BME280;28892;55.640;37.532;2023-07-02T07:01:54;97269.59;;;22.85;53.97
43298;BME280;28892;55.640;37.532;2023-07-02T07:04:23;97259.91;;;22.29;55.35
43298;BME280;28892;55.640;37.532;2023-07-02T07:06:49;97259.28;;;21.73;56.24
43298;BME280;28892;55.640;37.532;2023-07-02T07:09:15;97260.50;;;21.67;56.99
43298;BME280;28892;55.640;37.532;2023-07-02T07:11:46;97265.97;;;22.12;54.92
43298;BME280;28892;55.640;37.532;2023-07-02T07:14:11;97269.25;;;22.32;54.78
43298;BME280;28892;55.640;37.532;2023-07-02T07:16:43;97267.81;;;22.49;54.02
43298;BME280;28892;55.640;37.532;2023-07-02T07:19:09;97269.16;;;22.14;55.08
43298;BME280;28892;55.640;37.532;2023-07-02T07:21:36;97266.56;;;22.09;55.09
43298;BME280;28892;55.640;37.532;2023-07-02T07:24:02;97276.16;;;22.15;54.96
43298;BME280;28892;55.640;37.532;2023-07-02T07:26:29;97271.59;;;22.47;54.08
43298;BME280;28892;55.640;37.532;2023-07-02T07:28:54;97279.56;;;22.75;53.13
43298;BME280;28892;55.640;37.532;2023-07-02T07:31:29;97276.47;;;22.91;52.84
43298;BME280;28892;55.640;37.532;2023-07-02T07:33:55;97266.63;;;22.95;52.55
43298;BME280;28892;55.640;37.532;2023-07-02T07:36:21;97268.78;;;22.53;52.46
43298;BME280;28892;55.640;37.532;2023-07-02T07:38:55;97275.91;;;22.03;52.73
43298;BME280;28892;55.640;37.532;2023-07-02T07:41:24;97283.63;;;22.18;53.29
43298;BME280;28892;55.640;37.532;2023-07-02T07:43:50;97275.78;;;22.08;52.94
43298;BME280;28892;55.640;37.532;2023-07-02T07:46:21;97276.38;;;22.05;52.42
43298;BME280;28892;55.640;37.532;2023-07-02T07:48:50;97282.81;;;21.95;53.21
43298;BME280;28892;55.640;37.532;2023-07-02T07:51:23;97284.50;;;22.28;52.13
43298;BME280;28892;55.640;37.532;2023-07-02T07:53:49;97285.38;;;22.60;51.61
43298;BME280;28892;55.640;37.532;2023-07-02T07:56:17;97287.31;;;23.00;51.20
43298;BME280;28892;55.640;37.532;2023-07-02T07:58:46;97277.53;;;23.13;51.18
43298;BME280;28892;55.640;37.532;2023-07-02T08:01:12;97278.66;;;23.21;51.14
43298;BME280;28892;55.640;37.532;2023-07-02T08:03:38;97271.06;;;22.91;51.24
43298;BME280;28892;55.640;37.532;2023-07-02T08:06:07;97282.13;;;23.12;51.10
43298;BME280;28892;55.640;37.532;2023-07-02T08:08:33;97285.09;;;23.02;51.04
43298;BME280;28892;55.640;37.532;2023-07-02T08:10:59;97277.34;;;23.09;50.09
43298;BME280;28892;55.640;37.532;2023-07-02T08:13:25;97288.63;;;23.02;49.95
43298;BME280;28892;55.640;37.532;2023-07-02T08:15:51;97279.19;;;22.91;49.40
43298;BME280;28892;55.640;37.532;2023-07-02T08:18:17;97292.28;;;23.38;48.59
43298;BME280;28892;55.640;37.532;2023-07-02T08:20:43;97279.81;;;23.28;46.28
43298;BME280;28892;55.640;37.532;2023-07-02T08:23:09;97286.72;;;23.03;47.83
43298;BME280;28892;55.640;37.532;2023-07-02T08:25:35;97264.41;;;22.97;47.95
43298;BME280;28892;55.640;37.532;2023-07-02T08:28:01;97286.28;;;23.19;47.53
43298;BME280;28892;55.640;37.532;2023-07-02T08:30:28;97284.94;;;23.39;46.61
43298;BME280;28892;55.640;37.532;2023-07-02T08:37:45;97284.31;;;24.92;44.49
43298;BME280;28892;55.640;37.532;2023-07-02T12:22:09;97324.38;;;24.86;37.86
43298;BME280;28892;55.640;37.532;2023-07-02T12:24:38;97319.16;;;24.37;38.92
43298;BME280;28892;55.640;37.532;2023-07-02T12:27:17;97335.19;;;25.04;38.21
43298;BME280;28892;55.640;37.532;2023-07-02T12:29:47;97332.94;;;25.06;37.67
43298;BME280;28892;55.640;37.532;2023-07-02T12:35:59;97324.06;;;24.52;38.15
43298;BME280;28892;55.640;37.532;2023-07-02T12:42:06;97320.53;;;24.69;37.55
43298;BME280;28892;55.640;37.532;2023-07-02T12:45:27;97325.47;;;23.79;38.75
43298;BME280;28892;55.640;37.532;2023-07-02T12:47:53;97322.97;;;24.18;38.02
43298;BME280;28892;55.640;37.532;2023-07-02T12:50:22;97325.22;;;24.25;38.03
43298;BME280;28892;55.640;37.532;2023-07-02T12:52:53;97321.22;;;24.13;38.23
43298;BME280;28892;55.640;37.532;2023-07-02T12:55:40;97316.94;;;24.30;37.65
43298;BME280;28892;55.640;37.532;2023-07-02T12:58:40;97317.09;;;24.25;37.99
43298;BME280;28892;55.640;37.532;2023-07-02T13:01:29;97319.31;;;24.05;37.75
43298;BME280;28892;55.640;37.532;2023-07-02T13:04:09;97324.63;;;23.61;38.67
43298;BME280;28892;55.640;37.532;2023-07-02T13:07:33;97317.56;;;24.36;36.83
43298;BME280;28892;55.640;37.532;2023-07-02T13:10:41;97314.69;;;24.32;36.77
43298;BME280;28892;55.640;37.532;2023-07-02T13:13:10;97317.88;;;24.43;37.18
43298;BME280;28892;55.640;37.532;2023-07-02T13:15:45;97317.06;;;24.60;36.72
43298;BME280;28892;55.640;37.532;2023-07-02T13:22:35;97335.53;;;24.76;35.79
43298;BME280;28892;55.640;37.532;2023-07-02T13:25:15;97319.47;;;24.35;36.60
43298;BME280;28892;55.640;37.532;2023-07-02T13:28:12;97326.00;;;24.34;36.06
43298;BME280;28892;55.640;37.532;2023-07-02T13:30:57;97328.09;;;24.46;35.52
43298;BME280;28892;55.640;37.532;2023-07-02T13:33:46;97322.00;;;24.67;35.02
43298;BME280;28892;55.640;37.532;2023-07-02T13:36:51;97314.19;;;24.65;35.94
43298;BME280;28892;55.640;37.532;2023-07-02T13:42:52;97321.69;;;24.16;36.42
43298;BME280;28892;55.640;37.532;2023-07-02T13:45:22;97317.25;;;24.46;35.94
43298;BME280;28892;55.640;37.532;2023-07-02T13:47:48;97318.69;;;24.26;36.43
43298;BME280;28892;55.640;37.532;2023-07-02T13:50:15;97324.88;;;24.00;36.26
43298;BME280;28892;55.640;37.532;2023-07-02T13:53:01;97315.16;;;23.90;35.94
43298;BME280;28892;55.640;37.532;2023-07-02T13:55:39;97323.09;;;23.86;36.11
43298;BME280;28892;55.640;37.532;2023-07-02T13:58:05;97329.47;;;23.99;35.92
43298;BME280;28892;55.640;37.532;2023-07-02T14:03:55;97338.13;;;24.46;36.30
43298;BME280;28892;55.640;37.532;2023-07-02T14:06:35;97343.38;;;24.42;36.34
43298;BME280;28892;55.640;37.532;2023-07-02T14:09:33;97334.63;;;24.45;36.23
43298;BME280;28892;55.640;37.532;2023-07-02T14:12:23;97330.00;;;24.28;36.28
43298;BME280;28892;55.640;37.532;2023-07-02T14:14:51;97334.78;;;24.13;36.24
43298;BME280;28892;55.640;37.532;2023-07-02T14:18:08;97337.09;;;23.89;36.76
43298;BME280;28892;55.640;37.532;2023-07-02T14:21:05;97333.75;;;23.83;36.75
43298;BME280;28892;55.640;37.532;2023-07-02T14:24:02;97344.97;;;24.17;36.57
43298;BME280;28892;55.640;37.532;2023-07-02T14:26:40;97330.16;;;24.32;36.26
43298;BME280;28892;55.640;37.532;2023-07-02T14:29:21;97341.16;;;24.18;36.59
43298;BME280;28892;55.640;37.532;2023-07-02T14:32:00;97342.59;;;24.24;36.97
43298;BME280;28892;55.640;37.532;2023-07-02T14:38:11;97337.31;;;24.36;35.60
43298;BME280;28892;55.640;37.532;2023-07-02T14:41:13;97339.09;;;24.23;36.19
43298;BME280;28892;55.640;37.532;2023-07-02T14:48:27;97345.28;;;24.06;36.31
43298;BME280;28892;55.640;37.532;2023-07-02T14:51:30;97342.91;;;24.22;36.43
43298;BME280;28892;55.640;37.532;2023-07-02T14:57:41;97329.00;;;24.59;36.54
43298;BME280;28892;55.640;37.532;2023-07-02T15:04:08;97340.81;;;24.19;37.06
43298;BME280;28892;55.640;37.532;2023-07-02T15:07:10;97355.97;;;24.29;36.47
43298;BME280;28892;55.640;37.532;2023-07-02T15:09:45;97345.78;;;24.08;37.09
43298;BME280;28892;55.640;37.532;2023-07-02T15:12:35;97351.88;;;23.74;37.62
43298;BME280;28892;55.640;37.532;2023-07-02T15:15:17;97355.03;;;23.58;38.61
43298;BME280;28892;55.640;37.532;2023-07-02T15:17:56;97356.91;;;23.49;38.80
43298;BME280;28892;55.640;37.532;2023-07-02T15:20:58;97362.16;;;23.45;38.90
43298;BME280;28892;55.640;37.532;2023-07-02T15:24:05;97360.69;;;23.39;38.90
43298;BME280;28892;55.640;37.532;2023-07-02T15:26:44;97356.66;;;23.27;39.31
43298;BME280;28892;55.640;37.532;2023-07-02T15:29:15;97362.97;;;23.23;39.17
43298;BME280;28892;55.640;37.532;2023-07-02T15:31:59;97356.06;;;23.30;39.46
43298;BME280;28892;55.640;37.532;2023-07-02T15:34:34;97350.94;;;23.29;39.30
43298;BME280;28892;55.640;37.532;2023-07-02T15:37:09;97355.34;;;23.65;38.01
43298;BME280;28892;55.640;37.532;2023-07-02T15:39:35;97344.66;;;23.51;38.21
43298;BME280;28892;55.640;37.532;2023-07-02T15:42:01;97337.91;;;23.31;38.26
43298;BME280;28892;55.640;37.532;2023-07-02T15:44:34;97354.88;;;23.54;38.98
43298;BME280;28892;55.640;37.532;2023-07-02T15:47:00;97352.19;;;23.72;38.62
43298;BME280;28892;55.640;37.532;2023-07-02T15:49:31;97347.88;;;23.71;38.70
43298;BME280;28892;55.640;37.532;2023-07-02T15:52:00;97350.88;;;23.52;39.32
43298;BME280;28892;55.640;37.532;2023-07-02T15:54:26;97346.75;;;23.54;38.81
43298;BME280;28892;55.640;37.532;2023-07-02T15:56:55;97360.72;;;23.48;39.31
43298;BME280;28892;55.640;37.532;2023-07-02T15:59:21;97350.97;;;23.38;39.05
43298;BME280;28892;55.640;37.532;2023-07-02T16:01:57;97352.16;;;23.54;39.01
43298;BME280;28892;55.640;37.532;2023-07-02T16:04:34;97361.06;;;23.55;39.15
43298;BME280;28892;55.640;37.532;2023-07-02T16:10:51;97360.34;;;23.32;39.96
43298;BME280;28892;55.640;37.532;2023-07-02T16:13:17;97354.06;;;23.22;38.63
43298;BME280;28892;55.640;37.532;2023-07-02T16:15:46;97356.59;;;23.19;39.40
43298;BME280;28892;55.640;37.532;2023-07-02T16:18:15;97352.41;;;23.12;39.26
43298;BME280;28892;55.640;37.532;2023-07-02T16:20:41;97355.63;;;23.14;38.96
43298;BME280;28892;55.640;37.532;2023-07-02T16:23:07;97357.56;;;23.23;38.93
43298;BME280;28892;55.640;37.532;2023-07-02T16:25:55;97350.94;;;23.29;38.79
43298;BME280;28892;55.640;37.532;2023-07-02T16:28:22;97352.16;;;23.23;38.96
43298;BME280;28892;55.640;37.532;2023-07-02T16:31:21;97370.75;;;23.47;39.28
43298;BME280;28892;55.640;37.532;2023-07-02T16:33:52;97353.06;;;23.41;38.98
43298;BME280;28892;55.640;37.532;2023-07-02T16:36:33;97351.44;;;23.31;39.45
43298;BME280;28892;55.640;37.532;2023-07-02T16:38:59;97344.19;;;23.17;39.35
43298;BME280;28892;55.640;37.532;2023-07-02T16:41:40;97353.59;;;23.20;39.12
43298;BME280;28892;55.640;37.532;2023-07-02T16:44:17;97353.03;;;23.09;39.32
43298;BME280;28892;55.640;37.532;2023-07-02T16:47:29;97348.00;;;23.16;38.95
43298;BME280;28892;55.640;37.532;2023-07-02T16:49:59;97351.81;;;23.15;38.88
43298;BME280;28892;55.640;37.532;2023-07-02T16:52:34;97355.09;;;23.03;39.11
43298;BME280;28892;55.640;37.532;2023-07-02T16:55:00;97354.13;;;22.99;39.15
43298;BME280;28892;55.640;37.532;2023-07-02T16:57:26;97348.78;;;22.85;39.66
43298;BME280;28892;55.640;37.532;2023-07-02T16:59:55;97353.75;;;22.92;39.44
43298;BME280;28892;55.640;37.532;2023-07-02T17:02:23;97360.63;;;22.98;39.33
43298;BME280;28892;55.640;37.532;2023-07-02T17:04:56;97358.91;;;23.02;39.59
43298;BME280;28892;55.640;37.532;2023-07-02T17:07:26;97361.19;;;22.86;39.71
43298;BME280;28892;55.640;37.532;2023-07-02T17:09:54;97359.72;;;22.80;39.60
43298;BME280;28892;55.640;37.532;2023-07-02T17:12:21;97364.97;;;22.77;39.87
43298;BME280;28892;55.640;37.532;2023-07-02T17:14:48;97375.19;;;22.88;39.65
43298;BME280;28892;55.640;37.532;2023-07-02T17:17:20;97367.28;;;22.69;39.94
43298;BME280;28892;55.640;37.532;2023-07-02T17:19:48;97375.22;;;22.66;40.36
43298;BME280;28892;55.640;37.532;2023-07-02T17:22:17;97384.59;;;22.68;39.95
43298;BME280;28892;55.640;37.532;2023-07-02T17:25:16;97389.97;;;22.82;40.49
43298;BME280;28892;55.640;37.532;2023-07-02T17:27:42;97384.53;;;22.59;40.59
43298;BME280;28892;55.640;37.532;2023-07-02T17:33:30;97392.34;;;22.61;40.87
43298;BME280;28892;55.640;37.532;2023-07-02T17:35:59;97397.88;;;22.56;41.41
43298;BME280;28892;55.640;37.532;2023-07-02T17:38:26;97390.75;;;22.46;41.43
43298;BME280;28892;55.640;37.532;2023-07-02T17:40:52;97393.59;;;22.41;41.65
43298;BME280;28892;55.640;37.532;2023-07-02T17:43:24;97397.19;;;22.36;41.89